Time;durP1;ratioP1;P1;durP2;ratioP2;P2;SDS_P1;SDS_P2;PMS_P1;PMS_P2;Temp;Humidity;BMP_temperature;BMP_pressure;BME280_temperature;BME280_humidity;BME280_pressure;Samples;Min_cycle;Max_cycle;Signal;HPM_P1;HPM_P2
2022/05/05 00:01:35;;;;;;;18.50;9.93;;;;;;;10.40;77.19;99452.42;1752543;82;21470;-90
2022/05/05 00:04:02;;;;;;;16.25;9.60;;;;;;;10.29;78.74;99453.45;1744309;81;21430;-86
2022/05/05 00:06:28;;;;;;;18.07;9.53;;;;;;;10.23;79.86;99454.02;1754054;82;21010;-88
2022/05/05 00:08:56;;;;;;;18.15;9.45;;;;;;;10.22;81.11;99459.63;1744628;81;20963;-83
2022/05/05 00:14:31;;;;;;;17.87;9.15;;;;;;;10.22;81.29;99465.28;1746857;82;20937;-85
2022/05/05 00:17:07;;;;;;;20.75;8.90;;;;;;;10.20;81.44;99450.16;1750382;80;21024;-88
2022/05/05 00:19:37;;;;;;;17.87;9.28;;;;;;;10.21;81.10;99459.23;1735878;82;20952;-87
2022/05/05 00:22:05;;;;;;;18.52;8.80;;;;;;;10.24;81.37;99456.56;1751877;80;21018;-87
2022/05/05 00:24:33;;;;;;;16.90;8.88;;;;;;;10.27;81.19;99463.47;1730425;81;21461;-87
2022/05/05 00:27:00;;;;;;;17.77;9.23;;;;;;;10.23;80.72;99454.02;1751381;82;21512;-86
2022/05/05 00:29:27;;;;;;;15.78;8.40;;;;;;;10.23;81.36;99462.66;1744336;81;20989;-88
2022/05/05 00:31:53;;;;;;;16.52;8.00;;;;;;;10.23;79.89;99467.01;1755385;80;20976;-87
2022/05/05 00:34:20;;;;;;;17.30;8.55;;;;;;;10.19;80.37;99464.05;1733611;80;21003;-85
2022/05/05 00:36:46;;;;;;;27.77;8.95;;;;;;;10.19;80.29;99467.50;1755776;82;20999;-88
2022/05/05 00:39:13;;;;;;;17.27;8.03;;;;;;;10.18;81.34;99464.92;1731629;81;20957;-85
2022/05/05 00:41:43;;;;;;;12.20;6.72;;;;;;;10.22;81.14;99475.67;1750845;82;20992;-84
2022/05/05 00:44:10;;;;;;;13.53;7.37;;;;;;;10.24;81.51;99473.45;1753831;81;21466;-86
2022/05/05 00:46:37;;;;;;;15.28;7.00;;;;;;;10.26;81.58;99472.98;1729527;81;20949;-87
2022/05/05 00:49:05;;;;;;;13.55;7.05;;;;;;;10.26;81.52;99474.73;1745876;82;21021;-86
2022/05/05 00:51:33;;;;;;;13.25;8.13;;;;;;;10.25;81.54;99478.23;1752056;82;20961;-85
2022/05/05 00:53:59;;;;;;;17.62;7.75;;;;;;;10.23;81.53;99476.95;1753759;82;21039;-88
2022/05/05 00:56:28;;;;;;;14.18;8.05;;;;;;;10.20;81.24;99480.88;1748338;82;21128;-86
2022/05/05 00:58:57;;;;;;;13.80;7.85;;;;;;;10.13;81.23;99483.19;1750877;82;20983;-84
2022/05/05 01:01:24;;;;;;;19.17;7.78;;;;;;;10.07;81.22;99487.20;1757057;82;20906;-86
2022/05/05 01:03:51;;;;;;;11.95;7.30;;;;;;;10.03;81.48;99483.78;1743544;81;20984;-85
2022/05/05 01:06:18;;;;;;;14.58;6.75;;;;;;;10.00;81.38;99480.38;1753481;80;21063;-86
2022/05/05 01:08:46;;;;;;;12.95;6.60;;;;;;;9.94;80.69;99484.77;1756873;82;21362;-86
2022/05/05 01:11:13;;;;;;;13.50;6.62;;;;;;;9.87;81.84;99487.08;1746260;82;20973;-83
2022/05/05 01:13:42;;;;;;;11.83;7.03;;;;;;;9.76;80.34;99480.73;1755623;81;20992;-84
2022/05/05 01:16:10;;;;;;;14.90;6.90;;;;;;;9.70;81.43;99486.02;1741848;82;21045;-85
2022/05/05 01:18:38;;;;;;;15.25;6.12;;;;;;;9.64;78.95;99480.92;1739058;80;21047;-85
2022/05/05 01:21:08;;;;;;;12.70;5.97;;;;;;;9.51;79.24;99483.28;1751976;80;20968;-87
2022/05/05 01:23:35;;;;;;;9.98;5.25;;;;;;;9.39;79.27;99479.56;1745456;82;20972;-89
2022/05/05 01:28:46;;;;;;;9.10;5.55;;;;;;;9.26;82.70;99478.45;1751283;81;20962;-85
2022/05/05 01:31:13;;;;;;;10.68;5.40;;;;;;;9.19;81.50;99472.94;1717555;82;21522;-89
2022/05/05 01:33:40;;;;;;;10.00;5.15;;;;;;;9.18;83.97;99477.70;1752935;82;21065;-86
2022/05/05 01:36:07;;;;;;;9.93;4.85;;;;;;;9.16;82.48;99479.45;1738674;82;21018;-84
2022/05/05 01:38:36;;;;;;;8.70;4.95;;;;;;;9.16;82.47;99471.22;1719676;83;20990;-87
2022/05/05 01:41:10;;;;;;;8.20;4.72;;;;;;;9.18;82.28;99476.84;1753388;81;21458;-85
2022/05/05 01:43:39;;;;;;;9.90;4.95;;;;;;;9.17;83.23;99481.15;1735465;80;20987;-88
2022/05/05 01:46:06;;;;;;;9.78;4.80;;;;;;;9.19;82.39;99474.23;1746092;82;20964;-88
2022/05/05 01:48:33;;;;;;;7.62;4.62;;;;;;;9.18;82.90;99480.73;1751391;82;21455;-83
2022/05/05 01:51:00;;;;;;;10.10;4.67;;;;;;;9.16;81.99;99473.81;1769646;81;21447;-84
2022/05/05 01:53:27;;;;;;;11.25;4.70;;;;;;;9.14;82.04;99483.36;1746316;82;20966;-88
2022/05/05 01:55:54;;;;;;;8.35;4.47;;;;;;;9.18;81.95;99480.73;1736878;81;20948;-86
2022/05/05 01:58:21;;;;;;;8.03;4.65;;;;;;;9.20;82.00;99482.42;1734465;82;20983;-86
2022/05/05 02:00:47;;;;;;;8.08;4.75;;;;;;;9.23;82.26;99482.39;1739275;81;20943;-85
2022/05/05 02:03:14;;;;;;;7.72;4.05;;;;;;;9.27;82.53;99477.58;1742960;81;21041;-88
2022/05/05 02:05:43;;;;;;;8.38;4.62;;;;;;;9.29;82.35;99487.91;1735735;82;20979;-86
2022/05/05 02:08:11;;;;;;;8.28;5.10;;;;;;;9.33;82.50;99491.77;1747372;80;21038;-84
2022/05/05 02:10:38;;;;;;;10.38;5.20;;;;;;;9.32;83.34;99488.73;1727167;81;20947;-84
2022/05/05 02:13:06;;;;;;;9.73;5.20;;;;;;;9.28;82.39;99490.11;1716907;82;20980;-85
2022/05/05 02:15:34;;;;;;;9.70;5.10;;;;;;;9.29;82.46;99488.80;1728674;81;20935;-85
2022/05/05 02:18:10;;;;;;;7.72;4.87;;;;;;;9.27;82.59;99493.56;1731823;82;21771;-84
2022/05/05 02:20:39;;;;;;;10.75;4.97;;;;;;;9.26;82.64;99495.31;1734040;81;20980;-86
2022/05/05 02:23:07;;;;;;;8.40;4.92;;;;;;;9.23;82.67;99497.08;1732216;83;21085;-85
2022/05/05 02:25:33;;;;;;;7.58;5.03;;;;;;;9.19;81.51;99488.50;1732753;81;20983;-85
2022/05/05 02:28:00;;;;;;;10.70;5.45;;;;;;;9.15;82.35;99497.17;1730771;83;20995;-86
2022/05/05 02:30:28;;;;;;;11.03;5.20;;;;;;;9.12;82.34;99493.34;1728391;81;21469;-79
2022/05/05 02:32:55;;;;;;;14.95;5.40;;;;;;;9.07;82.28;99494.70;1731772;81;21414;-81
2022/05/05 02:35:23;;;;;;;16.97;5.65;;;;;;;9.03;81.21;99496.92;1731399;83;20963;-88
2022/05/05 02:40:35;;;;;;;9.23;5.55;;;;;;;8.90;82.63;99496.19;1732376;81;20940;-90
2022/05/05 02:43:01;;;;;;;8.83;5.25;;;;;;;8.85;83.14;99509.64;1734339;81;21037;-90
2022/05/05 02:45:28;;;;;;;7.83;4.10;;;;;;;8.79;82.76;99503.23;1733273;81;20960;-90
2022/05/05 02:47:54;;;;;;;8.35;4.67;;;;;;;8.72;82.67;99506.78;1742758;81;21527;-89
2022/05/05 02:50:22;;;;;;;8.63;5.12;;;;;;;8.66;82.11;99510.74;1732346;81;20972;-89
2022/05/05 02:52:49;;;;;;;7.67;4.92;;;;;;;8.61;82.33;99515.09;1734220;81;20956;-89
2022/05/05 02:55:16;;;;;;;16.57;5.12;;;;;;;8.59;82.73;99515.55;1730070;83;20979;-91
2022/05/05 02:57:42;;;;;;;8.68;4.90;;;;;;;8.54;83.39;99511.28;1714786;81;20955;-87
2022/05/05 03:00:11;;;;;;;9.23;4.55;;;;;;;8.51;83.54;99516.92;1732149;83;20966;-88
2022/05/05 03:02:39;;;;;;;11.97;5.40;;;;;;;8.50;83.23;99518.66;1728847;81;20958;-88
2022/05/05 03:05:06;;;;;;;8.85;5.22;;;;;;;8.50;83.26;99519.11;1732398;81;20974;-86
2022/05/05 03:07:34;;;;;;;11.38;5.00;;;;;;;8.53;83.09;99522.95;1749534;82;21008;-90
2022/05/05 03:10:00;;;;;;;9.68;5.35;;;;;;;8.57;83.78;99527.22;1723489;83;20978;-90
2022/05/05 03:12:27;;;;;;;11.75;5.50;;;;;;;8.60;83.27;99531.54;1745576;81;20967;-88
2022/05/05 03:14:54;;;;;;;7.80;4.62;;;;;;;8.62;83.08;99528.50;1736487;82;21033;-87
2022/05/05 03:17:21;;;;;;;9.30;5.12;;;;;;;8.63;83.23;99525.02;1744494;81;21001;-92
2022/05/05 03:19:47;;;;;;;13.20;5.50;;;;;;;8.66;82.72;99531.48;1742659;82;20991;-85
2022/05/05 03:22:14;;;;;;;16.65;5.80;;;;;;;8.68;83.22;99533.61;1722250;82;20985;-89
2022/05/05 03:24:40;;;;;;;15.93;5.83;;;;;;;8.72;83.36;99529.66;1741045;82;21460;-91
2022/05/05 03:27:07;;;;;;;13.48;5.40;;;;;;;8.77;83.07;99536.09;1752919;81;20962;-88
2022/05/05 03:29:33;;;;;;;12.10;5.60;;;;;;;8.79;83.03;99535.63;1748196;82;21030;-87
2022/05/05 03:31:59;;;;;;;14.50;5.72;;;;;;;8.81;82.79;99545.55;1753032;82;20931;-87
2022/05/05 03:34:26;;;;;;;11.22;5.65;;;;;;;8.82;83.00;99545.98;1749961;81;20953;-88
2022/05/05 03:36:53;;;;;;;11.48;5.50;;;;;;;8.78;82.55;99552.08;1751928;81;21104;-86
2022/05/05 03:39:19;;;;;;;14.83;6.08;;;;;;;8.73;81.71;99556.44;1742952;81;20937;-87
2022/05/05 03:41:46;;;;;;;11.28;6.00;;;;;;;8.71;82.45;99559.48;1740034;81;21475;-86
2022/05/05 03:44:13;;;;;;;9.75;5.58;;;;;;;8.72;82.75;99568.55;1747494;80;21490;-88
2022/05/05 03:46:40;;;;;;;11.93;6.33;;;;;;;8.67;83.11;99552.62;1732417;82;21003;-87
2022/05/05 03:49:06;;;;;;;12.10;6.42;;;;;;;8.69;82.11;99562.09;1751990;82;20954;-83
2022/05/05 03:51:32;;;;;;;13.53;6.37;;;;;;;8.70;83.07;99565.56;1751239;81;20985;-89
2022/05/05 03:53:59;;;;;;;18.55;6.90;;;;;;;8.72;83.28;99562.52;1750037;82;20961;-89
2022/05/05 03:56:26;;;;;;;10.38;6.15;;;;;;;8.75;83.50;99575.42;1739162;81;20986;-85
2022/05/05 03:58:52;;;;;;;19.42;6.53;;;;;;;8.78;83.08;99576.71;1728858;81;20969;-87
2022/05/05 04:01:19;;;;;;;12.13;6.25;;;;;;;8.81;83.20;99578.41;1730351;81;21480;-89
2022/05/05 04:03:45;;;;;;;14.35;6.35;;;;;;;8.86;83.80;99583.12;1752556;82;21450;-92
2022/05/05 04:06:13;;;;;;;11.43;6.30;;;;;;;8.93;84.19;99588.23;1757964;80;20982;-90
2022/05/05 04:08:39;;;;;;;9.70;6.08;;;;;;;8.99;82.93;99582.09;1757065;82;21029;-87
2022/05/05 04:11:07;;;;;;;12.40;6.17;;;;;;;9.05;83.71;99578.58;1742106;81;20971;-90
2022/05/05 04:13:35;;;;;;;11.28;5.85;;;;;;;9.12;82.33;99594.06;1724598;81;20971;-87
2022/05/05 04:16:01;;;;;;;8.95;5.45;;;;;;;9.16;82.62;99590.55;1734055;82;20962;-88
2022/05/05 04:18:28;;;;;;;11.73;5.75;;;;;;;9.19;84.25;99599.17;1760701;81;21011;-88
2022/05/05 04:20:55;;;;;;;11.60;6.28;;;;;;;9.24;83.15;99598.70;1758074;80;20967;-85
2022/05/05 04:23:21;;;;;;;13.45;7.20;;;;;;;9.33;81.99;99602.05;1751275;82;21012;-85
2022/05/05 04:25:49;;;;;;;14.58;7.47;;;;;;;9.40;82.54;99598.08;1745483;82;20981;-89
2022/05/05 04:28:16;;;;;;;13.48;6.78;;;;;;;9.44;83.03;99607.09;1755313;82;20987;-88
2022/05/05 04:30:43;;;;;;;10.58;5.97;;;;;;;9.52;83.49;99610.45;1738806;81;21081;-89
2022/05/05 04:33:11;;;;;;;14.15;6.97;;;;;;;9.58;83.56;99605.63;1752056;81;21041;-87
2022/05/05 04:35:39;;;;;;;13.72;7.90;;;;;;;9.62;84.27;99605.15;1751803;82;20980;-87
2022/05/05 04:38:06;;;;;;;13.53;6.67;;;;;;;9.67;83.24;99610.70;1750809;81;20988;-79
2022/05/05 04:40:33;;;;;;;16.25;7.95;;;;;;;9.74;83.10;99612.32;1744241;82;21018;-82
2022/05/05 04:43:00;;;;;;;20.52;9.73;;;;;;;9.82;82.47;99616.56;1752963;81;20981;-83
2022/05/05 04:45:27;;;;;;;12.37;6.90;;;;;;;9.85;83.17;99610.05;1744879;82;20960;-84
2022/05/05 04:47:53;;;;;;;15.43;7.67;;;;;;;9.92;83.13;99619.00;1756942;80;21454;-89
2022/05/05 04:50:20;;;;;;;14.80;6.30;;;;;;;9.99;82.51;99621.09;1751548;81;20957;-83
2022/05/05 04:52:46;;;;;;;19.77;5.97;;;;;;;10.02;81.97;99622.33;1751114;81;21045;-84
2022/05/05 04:55:13;;;;;;;9.15;4.87;;;;;;;10.08;81.99;99630.48;1752237;82;21494;-83
2022/05/05 04:57:40;;;;;;;8.00;4.60;;;;;;;10.13;80.77;99628.69;1754215;82;21030;-88
2022/05/05 05:00:08;;;;;;;9.15;5.15;;;;;;;10.13;79.94;99622.19;1735395;82;21058;-83
2022/05/05 05:02:35;;;;;;;7.33;4.42;;;;;;;10.14;80.32;99628.64;1755587;82;21750;-86
2022/05/05 05:05:02;;;;;;;13.35;6.00;;;;;;;10.23;80.66;99628.11;1748558;81;20987;-84
2022/05/05 05:07:29;;;;;;;12.23;5.22;;;;;;;10.31;80.41;99626.28;1758049;81;21006;-83
2022/05/05 05:09:55;;;;;;;8.93;4.72;;;;;;;10.43;80.51;99624.78;1766027;81;21511;-81
2022/05/05 05:12:22;;;;;;;10.75;5.42;;;;;;;10.54;80.25;99636.30;1755689;81;21070;-82
2022/05/05 05:14:48;;;;;;;8.80;5.00;;;;;;;10.64;79.97;99633.10;1763735;81;20953;-81
2022/05/05 05:17:15;;;;;;;12.70;5.60;;;;;;;10.74;79.86;99638.56;1757683;81;20972;-83
2022/05/05 05:19:41;;;;;;;11.80;5.70;;;;;;;10.82;79.70;99631.48;1752107;81;21091;-85
2022/05/05 05:22:08;;;;;;;11.00;5.72;;;;;;;10.93;80.07;99634.77;1757916;81;20961;-85
2022/05/05 05:24:34;;;;;;;10.60;5.87;;;;;;;11.05;79.61;99631.53;1755937;80;20927;-86
2022/05/05 05:27:01;;;;;;;9.00;5.70;;;;;;;11.11;79.59;99638.77;1743319;80;21033;-81
2022/05/05 05:29:28;;;;;;;12.78;6.15;;;;;;;11.25;78.87;99632.45;1736627;80;21024;-81
2022/05/05 05:31:55;;;;;;;12.23;6.15;;;;;;;11.33;79.36;99631.41;1761861;80;21044;-82
2022/05/05 05:34:21;;;;;;;11.05;5.62;;;;;;;11.45;78.85;99635.52;1770107;80;21472;-86
2022/05/05 05:36:49;;;;;;;12.20;6.30;;;;;;;11.57;77.95;99636.17;1757088;80;20961;-85
2022/05/05 05:39:17;;;;;;;11.55;6.37;;;;;;;11.61;78.17;99638.66;1755494;80;20974;-83
2022/05/05 05:41:44;;;;;;;10.72;6.50;;;;;;;11.68;77.97;99641.56;1758852;80;20974;-83
2022/05/05 05:44:11;;;;;;;11.25;6.37;;;;;;;11.78;77.53;99640.05;1742382;80;20983;-81
2022/05/05 05:46:38;;;;;;;12.28;6.97;;;;;;;11.85;77.53;99641.64;1758295;80;20985;-82
2022/05/05 05:49:09;;;;;;;13.65;7.42;;;;;;;11.88;77.29;99635.93;1770557;80;21508;-85
2022/05/05 05:51:36;;;;;;;12.70;6.65;;;;;;;11.99;76.83;99653.11;1761200;80;20992;-81
2022/05/05 05:54:04;;;;;;;12.07;6.20;;;;;;;12.03;76.83;99649.09;1767768;80;20940;-82
2022/05/05 05:56:31;;;;;;;11.30;6.60;;;;;;;12.08;76.78;99651.61;1751549;81;20982;-83
2022/05/05 05:58:57;;;;;;;13.35;7.25;;;;;;;12.16;76.75;99648.84;1748377;80;20953;-81
2022/05/05 06:03:53;;;;;;;18.92;7.33;;;;;;;12.29;77.25;99658.92;1754188;80;21459;-84
2022/05/05 06:03:56;;;;;;;14.15;7.47;;;;;;;12.40;77.31;99665.66;1754157;81;20966;-82
2022/05/05 06:06:24;;;;;;;10.95;6.37;;;;;;;12.49;77.06;99658.48;1736276;81;21044;-83
2022/05/05 06:08:51;;;;;;;11.75;6.95;;;;;;;12.56;77.20;99660.48;1729446;81;20977;-81
2022/05/05 06:11:19;;;;;;;12.80;7.15;;;;;;;12.65;76.98;99656.78;1743658;81;21475;-83
2022/05/05 06:13:46;;;;;;;9.55;6.75;;;;;;;12.75;77.04;99653.05;1733220;81;21481;-83
2022/05/05 06:16:12;;;;;;;10.98;7.05;;;;;;;12.85;77.09;99655.86;1765330;80;20991;-88
2022/05/05 06:18:40;;;;;;;16.77;7.15;;;;;;;12.93;76.74;99653.02;1749690;80;20984;-84
2022/05/05 06:21:07;;;;;;;9.40;6.40;;;;;;;13.03;76.62;99652.34;1752147;80;21057;-82
2022/05/05 06:23:34;;;;;;;9.60;7.05;;;;;;;13.10;75.65;99662.58;1749424;82;21490;-82
2022/05/05 06:26:01;;;;;;;12.43;7.45;;;;;;;13.15;75.16;99667.70;1739705;81;20968;-84
2022/05/05 06:28:28;;;;;;;12.85;7.30;;;;;;;13.22;75.00;99656.18;1742330;81;21092;-83
2022/05/05 06:30:55;;;;;;;10.23;6.87;;;;;;;13.26;74.34;99662.19;1751832;80;21049;-86
2022/05/05 06:33:21;;;;;;;14.85;7.45;;;;;;;13.27;74.30;99667.38;1748387;80;20993;-81
2022/05/05 06:35:48;;;;;;;10.55;7.17;;;;;;;13.31;74.23;99661.66;1747035;82;21092;-82
2022/05/05 06:38:15;;;;;;;14.38;7.72;;;;;;;13.37;74.01;99660.60;1746832;80;21032;-81
2022/05/05 06:40:42;;;;;;;12.05;7.25;;;;;;;13.39;74.09;99669.25;1751016;80;21071;-83
2022/05/05 06:43:09;;;;;;;11.55;7.45;;;;;;;13.44;73.94;99673.45;1721895;82;21469;-82
2022/05/05 06:45:36;;;;;;;10.93;7.37;;;;;;;13.52;73.45;99672.79;1746742;80;20957;-82
2022/05/05 06:48:03;;;;;;;13.15;7.05;;;;;;;13.51;73.54;99666.33;1741043;80;21036;-84
2022/05/05 06:50:30;;;;;;;11.10;6.42;;;;;;;13.56;74.03;99669.65;1744180;80;20950;-82
2022/05/05 06:53:00;;;;;;;8.58;5.83;;;;;;;13.63;73.29;99659.91;1751140;80;21019;-83
2022/05/05 06:55:25;;;;;;;11.95;6.47;;;;;;;13.70;73.11;99665.34;1739924;80;21464;-86
2022/05/05 06:57:51;;;;;;;8.73;5.58;;;;;;;13.84;73.22;99671.47;1751558;80;20986;-84
2022/05/05 07:00:18;;;;;;;13.13;6.40;;;;;;;13.82;72.97;99665.44;1741358;81;20989;-84
2022/05/05 07:02:45;;;;;;;10.98;5.95;;;;;;;13.91;72.50;99660.80;1750464;80;20954;-77
2022/05/05 07:05:23;;;;;;;10.65;5.90;;;;;;;13.97;72.55;99661.07;1758751;80;20973;-80
2022/05/05 07:07:51;;;;;;;10.75;6.20;;;;;;;14.07;72.00;99662.50;1729563;80;21133;-80
2022/05/05 07:13:04;;;;;;;10.32;5.85;;;;;;;14.26;71.02;99654.92;1736314;82;20955;-78
2022/05/05 07:15:31;;;;;;;10.45;5.72;;;;;;;14.35;71.24;99655.11;1721517;82;21065;-79
2022/05/05 07:17:59;;;;;;;8.18;5.55;;;;;;;14.42;70.15;99653.99;1748040;80;20976;-79
2022/05/05 07:20:25;;;;;;;12.55;6.08;;;;;;;14.47;69.90;99660.41;1747140;80;21047;-78
2022/05/05 07:22:52;;;;;;;10.25;6.03;;;;;;;14.50;69.36;99657.24;1758809;80;20964;-78
2022/05/05 07:25:20;;;;;;;9.40;5.97;;;;;;;14.53;69.36;99665.44;1744228;80;21089;-75
2022/05/05 07:27:46;;;;;;;10.88;5.72;;;;;;;14.63;69.34;99659.03;1743354;80;21023;-81
2022/05/05 07:30:14;;;;;;;12.73;5.87;;;;;;;14.72;68.71;99667.02;1749891;80;21068;-78
2022/05/05 07:32:42;;;;;;;8.93;5.00;;;;;;;14.75;68.15;99663.00;1749787;80;21547;-84
2022/05/05 07:35:10;;;;;;;11.90;5.87;;;;;;;14.82;67.87;99663.22;1743098;80;20949;-81
2022/05/05 07:37:39;;;;;;;10.88;5.30;;;;;;;14.86;68.36;99660.90;1744877;80;20975;-77
2022/05/05 07:40:07;;;;;;;8.05;5.22;;;;;;;14.97;67.71;99659.67;1746140;80;21037;-77
2022/05/05 07:42:35;;;;;;;8.15;4.87;;;;;;;15.03;67.53;99657.69;1744924;80;20948;-77
2022/05/05 07:45:03;;;;;;;8.38;5.28;;;;;;;15.14;66.95;99657.34;1745576;80;21029;-83
2022/05/05 07:47:29;;;;;;;9.65;5.08;;;;;;;15.20;67.36;99648.38;1744118;80;20956;-82
2022/05/05 07:49:56;;;;;;;7.67;5.10;;;;;;;15.33;65.73;99655.38;1749546;80;21011;-81
2022/05/05 07:52:22;;;;;;;8.93;5.20;;;;;;;15.43;66.37;99649.73;1750209;80;20968;-86
2022/05/05 07:54:49;;;;;;;9.03;5.55;;;;;;;15.50;66.43;99644.69;1754111;80;21051;-82
2022/05/05 07:57:20;;;;;;;8.00;5.62;;;;;;;15.63;66.84;99642.91;1754197;80;20944;-81
2022/05/05 07:59:45;;;;;;;10.63;6.12;;;;;;;15.78;66.48;99646.78;1742436;80;21087;-83
2022/05/05 08:02:15;;;;;;;8.98;5.40;;;;;;;15.83;65.75;99643.04;1750274;80;21400;-80
2022/05/05 08:04:43;;;;;;;8.23;5.55;;;;;;;15.94;65.16;99646.59;1737905;81;21755;-77
2022/05/05 08:07:11;;;;;;;8.95;5.65;;;;;;;16.00;63.42;99648.13;1737672;82;21017;-81
2022/05/05 08:09:38;;;;;;;7.70;5.22;;;;;;;16.10;64.08;99638.98;1723212;82;21030;-82
2022/05/05 08:12:06;;;;;;;10.35;6.00;;;;;;;16.18;64.40;99640.84;1745124;80;21033;-81
2022/05/05 08:14:33;;;;;;;9.90;5.70;;;;;;;16.30;64.33;99640.81;1741824;80;21017;-81
2022/05/05 08:17:00;;;;;;;6.95;4.67;;;;;;;16.38;64.34;99642.67;1737604;80;20937;-81
2022/05/05 08:19:26;;;;;;;10.15;4.95;;;;;;;16.40;64.11;99632.97;1749474;82;20982;-81
2022/05/05 08:21:53;;;;;;;8.35;5.42;;;;;;;16.52;64.17;99631.61;1739895;80;20957;-80
2022/05/05 08:29:50;;;;;;;7.37;4.22;;;;;;;16.80;63.11;99628.69;1750859;80;21519;-79
2022/05/05 08:32:16;;;;;;;7.45;4.62;;;;;;;16.90;61.93;99625.25;1738285;80;20965;-75
2022/05/05 08:34:43;;;;;;;7.80;4.80;;;;;;;16.98;59.72;99632.80;1755545;80;20993;-79
2022/05/05 08:37:09;;;;;;;8.58;4.90;;;;;;;17.04;60.94;99624.66;1742581;80;21024;-81
2022/05/05 08:39:36;;;;;;;6.62;4.42;;;;;;;17.17;60.64;99622.34;1768995;80;21527;-75
2022/05/05 08:42:06;;;;;;;10.70;4.62;;;;;;;17.26;60.88;99614.91;1758496;80;20913;-80
2022/05/05 08:44:33;;;;;;;7.58;3.77;;;;;;;17.42;59.20;99619.48;1750253;80;20976;-81
2022/05/05 08:47:01;;;;;;;7.42;4.10;;;;;;;17.53;58.98;99614.61;1752813;80;21405;-81
2022/05/05 08:49:30;;;;;;;8.50;4.37;;;;;;;17.65;59.22;99613.20;1749910;80;22134;-79
2022/05/05 08:52:01;;;;;;;8.35;3.72;;;;;;;17.75;57.75;99623.67;1748811;80;21018;-78
2022/05/05 08:54:32;;;;;;;10.85;4.03;;;;;;;17.89;59.05;99620.44;1752568;80;21011;-78
2022/05/05 08:56:58;;;;;;;5.78;3.52;;;;;;;18.08;58.68;99621.72;1764154;80;21511;-77
2022/05/05 08:59:25;;;;;;;6.17;3.42;;;;;;;18.25;57.64;99620.46;1749669;80;21034;-80
2022/05/05 09:01:52;;;;;;;7.00;3.75;;;;;;;18.38;58.61;99616.78;1748156;80;21063;-79
2022/05/05 09:04:20;;;;;;;6.58;3.80;;;;;;;18.55;57.23;99617.73;1760341;80;21001;-78
2022/05/05 09:06:51;;;;;;;7.17;3.90;;;;;;;18.64;57.24;99611.98;1757626;80;20956;-80
2022/05/05 09:09:33;;;;;;;6.95;4.00;;;;;;;18.72;56.94;99611.16;1763732;80;20949;-80
2022/05/05 09:12:17;;;;;;;6.00;3.70;;;;;;;18.80;56.22;99608.14;1771924;80;20967;-79
2022/05/05 09:14:50;;;;;;;5.85;3.62;;;;;;;18.92;56.19;99611.94;1746421;80;21922;-80
2022/05/05 09:17:20;;;;;;;10.68;3.80;;;;;;;18.93;52.07;99611.02;1770388;80;21004;-80
2022/05/05 09:19:52;;;;;;;6.37;3.50;;;;;;;18.97;50.62;99609.45;1761829;80;21059;-78
2022/05/05 09:22:23;;;;;;;6.43;3.40;;;;;;;19.12;54.61;99610.91;1758022;80;21025;-78
2022/05/05 09:24:52;;;;;;;8.68;3.65;;;;;;;19.31;53.99;99603.73;1770443;80;21446;-80
2022/05/05 09:27:29;;;;;;;5.58;3.70;;;;;;;19.41;51.29;99611.54;1755453;80;20929;-80
2022/05/05 09:30:06;;;;;;;5.83;3.17;;;;;;;19.35;52.37;99604.44;1751554;80;20970;-80
2022/05/05 09:32:41;;;;;;;7.95;3.72;;;;;;;19.47;52.24;99601.98;1775236;80;20958;-77
2022/05/05 09:35:11;;;;;;;7.08;3.60;;;;;;;19.64;52.48;99606.36;1769871;80;20984;-78
2022/05/05 09:37:45;;;;;;;7.60;3.40;;;;;;;19.66;48.08;99607.13;1755424;80;21017;-78
2022/05/05 09:40:20;;;;;;;5.10;3.37;;;;;;;19.70;50.19;99609.61;1750053;80;21052;-82
2022/05/05 09:42:51;;;;;;;6.20;3.27;;;;;;;19.73;50.72;99608.98;1741360;81;20963;-81
2022/05/05 09:45:24;;;;;;;6.33;4.00;;;;;;;19.73;50.65;99610.78;1748966;80;20982;-81
2022/05/05 09:47:54;;;;;;;5.70;3.77;;;;;;;19.70;50.56;99605.66;1746671;80;21481;-80
2022/05/05 09:50:26;;;;;;;14.40;4.53;;;;;;;19.69;49.47;99599.50;1760977;80;20995;-80
2022/05/05 09:58:39;;;;;;;5.92;3.50;;;;;;;20.04;50.98;99597.59;1766185;80;21015;-79
2022/05/05 10:01:09;;;;;;;5.65;3.58;;;;;;;20.25;49.81;99594.21;1770661;80;20984;-78
2022/05/05 10:04:03;;;;;;;5.72;3.50;;;;;;;20.42;49.61;99593.23;1760557;80;20981;-79
2022/05/05 10:06:37;;;;;;;7.58;3.50;;;;;;;20.52;45.93;99594.02;1773961;80;21048;-80
2022/05/05 10:09:12;;;;;;;8.73;3.45;;;;;;;20.58;45.13;99590.55;1752134;80;20995;-80
2022/05/05 10:11:40;;;;;;;5.50;3.40;;;;;;;20.73;48.26;99593.25;1777132;80;20971;-79
2022/05/05 10:14:10;;;;;;;6.50;3.40;;;;;;;20.81;47.10;99590.55;1768415;80;21031;-79
2022/05/05 10:16:39;;;;;;;4.67;3.10;;;;;;;20.96;47.45;99593.21;1771314;80;21020;-77
2022/05/05 10:19:07;;;;;;;6.45;3.22;;;;;;;21.10;47.51;99582.65;1754598;80;20992;-81
2022/05/05 10:21:54;;;;;;;6.22;3.35;;;;;;;21.27;47.54;99581.63;1759924;80;20969;-80
2022/05/05 10:24:29;;;;;;;5.12;3.05;;;;;;;21.34;44.78;99583.41;1760813;80;21766;-79
2022/05/05 10:27:02;;;;;;;6.72;3.42;;;;;;;21.32;46.04;99584.82;1763679;80;20964;-81
2022/05/05 10:29:35;;;;;;;4.33;3.10;;;;;;;21.28;44.88;99581.15;1752698;80;21511;-79
2022/05/05 10:32:16;;;;;;;4.17;2.80;;;;;;;21.33;44.35;99580.38;1750207;80;20964;-79
2022/05/05 10:34:45;;;;;;;7.33;3.40;;;;;;;21.42;45.53;99579.81;1748074;80;20988;-80
2022/05/05 10:37:15;;;;;;;7.97;3.77;;;;;;;21.56;42.06;99582.48;1750385;81;21413;-80
2022/05/05 10:39:46;;;;;;;4.75;3.37;;;;;;;21.53;42.48;99583.16;1744425;80;21098;-80
2022/05/05 10:42:24;;;;;;;5.08;3.33;;;;;;;21.57;43.28;99578.90;1753838;80;20961;-81
2022/05/05 10:45:20;;;;;;;6.28;3.58;;;;;;;21.68;42.69;99582.66;1735648;80;20985;-79
2022/05/05 10:47:58;;;;;;;4.60;3.20;;;;;;;21.78;43.71;99577.16;1755294;80;21123;-82
2022/05/05 10:50:50;;;;;;;6.67;3.20;;;;;;;22.07;43.72;99574.45;1751968;80;21059;-77
2022/05/05 10:53:31;;;;;;;6.08;3.17;;;;;;;22.11;42.84;99574.13;1752510;80;20998;-79
2022/05/05 10:56:01;;;;;;;5.83;2.92;;;;;;;22.12;42.62;99564.38;1740495;80;21000;-81
2022/05/05 10:59:08;;;;;;;4.70;3.02;;;;;;;22.26;42.53;99561.70;1753047;80;21624;-79
2022/05/05 11:01:56;;;;;;;7.05;2.95;;;;;;;22.47;42.85;99560.77;1756830;80;20940;-77
2022/05/05 11:04:30;;;;;;;5.42;2.70;;;;;;;22.61;41.05;99558.52;1758923;80;20972;-79
2022/05/05 11:07:25;;;;;;;4.80;2.77;;;;;;;22.72;38.38;99558.64;1756244;80;21052;-81
2022/05/05 11:09:52;;;;;;;5.67;2.67;;;;;;;22.80;36.32;99557.64;1742310;81;21045;-84
2022/05/05 11:12:24;;;;;;;6.92;2.83;;;;;;;22.97;39.63;99559.11;1760122;79;21491;-79
2022/05/05 11:23:32;;;;;;;5.00;2.85;;;;;;;23.38;38.10;99543.47;1748698;80;20982;-80
2022/05/05 11:26:00;;;;;;;8.98;3.17;;;;;;;23.46;37.42;99548.23;1759472;80;21206;-80
2022/05/05 11:28:30;;;;;;;5.22;2.65;;;;;;;23.44;37.59;99544.84;1393070;80;10000062;-79
2022/05/05 11:30:57;;;;;;;5.25;2.60;;;;;;;23.57;33.27;99541.66;1680238;84;21030;-79
2022/05/05 11:33:23;;;;;;;5.15;2.55;;;;;;;23.68;35.96;99541.39;1674896;84;20981;-79
2022/05/05 11:35:56;;;;;;;6.67;2.95;;;;;;;23.83;35.12;99541.61;1671837;84;21485;-81
2022/05/05 11:38:28;;;;;;;4.80;2.92;;;;;;;23.93;35.24;99541.78;1680921;84;21006;-79
2022/05/05 11:41:03;;;;;;;7.35;2.77;;;;;;;23.96;34.70;99542.41;1677818;84;21481;-80
2022/05/05 11:46:18;;;;;;;8.45;2.72;;;;;;;23.96;32.09;99540.25;1671467;84;21077;-80
2022/05/05 11:48:54;;;;;;;4.55;2.52;;;;;;;24.17;31.94;99546.63;1676476;84;21100;-79
2022/05/05 11:51:24;;;;;;;6.30;2.50;;;;;;;24.24;30.18;99540.86;1668898;84;21061;-78
2022/05/05 11:54:10;;;;;;;6.53;2.58;;;;;;;24.24;31.60;99539.53;1674220;84;21799;-79
2022/05/05 11:56:43;;;;;;;3.98;2.47;;;;;;;24.34;32.56;99529.41;1677481;84;21001;-78
2022/05/05 12:02:21;;;;;;;4.10;2.70;;;;;;;24.56;29.91;99526.00;1676775;84;20963;-80
2022/05/05 12:04:56;;;;;;;8.55;2.50;;;;;;;24.94;32.30;99522.19;1668063;84;21042;-79
2022/05/05 12:07:24;;;;;;;7.15;2.65;;;;;;;25.34;32.65;99521.73;1679547;84;21001;-80
2022/05/05 12:09:57;;;;;;;4.85;2.83;;;;;;;25.70;30.61;99527.72;1663276;84;20996;-80
2022/05/05 12:12:27;;;;;;;5.25;2.70;;;;;;;25.98;29.84;99526.83;1667843;84;20975;-80
2022/05/05 12:14:57;;;;;;;7.65;2.50;;;;;;;26.19;30.22;99508.23;1679028;85;21466;-80
2022/05/05 12:17:28;;;;;;;4.40;2.35;;;;;;;26.71;29.59;99511.00;1684581;83;20995;-82